createdAt,value
2022-08-02T00:00:40.680Z,12.80
2022-08-02T00:03:09.107Z,12.80
2022-08-02T00:05:38.716Z,12.80
2022-08-02T00:08:08.540Z,12.70
2022-08-02T00:10:36.721Z,12.70
2022-08-02T00:13:04.786Z,12.70
2022-08-02T00:15:32.772Z,12.70
2022-08-02T00:18:00.891Z,12.60
2022-08-02T00:20:28.945Z,12.60
2022-08-02T00:22:58.320Z,12.60
2022-08-02T00:25:26.468Z,12.60
2022-08-02T00:27:54.434Z,12.50
2022-08-02T00:30:22.454Z,12.50
2022-08-02T00:32:50.551Z,12.50
2022-08-02T00:35:18.697Z,12.50
2022-08-02T00:37:46.704Z,12.50
2022-08-02T00:40:16.270Z,12.50
2022-08-02T00:42:45.088Z,12.50
2022-08-02T00:45:13.060Z,12.40
2022-08-02T00:47:41.089Z,12.40
2022-08-02T00:50:09.829Z,12.30
2022-08-02T00:52:37.792Z,12.30
2022-08-02T00:55:06.774Z,12.20
2022-08-02T00:57:36.124Z,12.20
2022-08-02T01:00:18.734Z,12.10
2022-08-02T01:02:46.852Z,12.00
2022-08-02T01:05:15.376Z,12.00
2022-08-02T01:07:43.640Z,12.00
2022-08-02T01:10:11.997Z,11.90
2022-08-02T01:12:41.351Z,11.90
2022-08-02T01:15:12.693Z,11.80
2022-08-02T01:17:48.498Z,11.80
2022-08-02T01:20:40.577Z,11.70
2022-08-02T01:23:21.637Z,11.80
2022-08-02T01:26:05.572Z,11.80
2022-08-02T01:28:40.140Z,11.80
2022-08-02T01:31:17.110Z,11.70
2022-08-02T01:33:52.745Z,11.70
2022-08-02T01:36:23.752Z,11.70
2022-08-02T01:38:54.453Z,11.70
2022-08-02T01:41:26.073Z,11.70
2022-08-02T01:43:58.739Z,11.70
2022-08-02T01:46:30.110Z,11.60
2022-08-02T01:49:00.639Z,11.50
2022-08-02T01:51:47.728Z,11.50
2022-08-02T01:54:18.395Z,11.50
2022-08-02T01:56:49.027Z,11.50
2022-08-02T01:59:21.578Z,11.60
2022-08-02T02:01:52.843Z,11.60
2022-08-02T02:04:23.044Z,11.50
2022-08-02T02:06:53.921Z,11.50
2022-08-02T02:09:23.753Z,11.40
2022-08-02T02:12:09.380Z,11.40
2022-08-02T02:14:51.544Z,11.30
2022-08-02T02:17:52.065Z,11.30
2022-08-02T02:20:15.330Z,11.30
2022-08-02T02:22:43.675Z,11.30
2022-08-02T02:25:12.879Z,11.30
2022-08-02T02:27:49.408Z,11.30
2022-08-02T02:30:19.628Z,11.30
2022-08-02T02:32:51.910Z,11.20
2022-08-02T02:35:22.501Z,11.20
2022-08-02T02:37:52.351Z,11.20
2022-08-02T02:40:21.818Z,11.10
2022-08-02T02:42:50.895Z,11.20
2022-08-02T02:45:22.587Z,11.20
2022-08-02T02:47:51.621Z,11.10
2022-08-02T02:50:21.629Z,11.10
2022-08-02T02:52:50.559Z,11.10
2022-08-02T02:55:19.316Z,11.20
2022-08-02T02:57:47.997Z,11.10
2022-08-02T03:00:16.737Z,11.10
2022-08-02T03:02:48.270Z,11.20
2022-08-02T03:05:16.999Z,11.20
2022-08-02T03:07:45.013Z,11.20
2022-08-02T03:10:13.476Z,11.10
2022-08-02T03:12:41.897Z,11.10
2022-08-02T03:15:13.077Z,11.00
2022-08-02T03:17:47.296Z,11.00
2022-08-02T03:20:16.867Z,11.00
2022-08-02T03:22:46.348Z,10.90
2022-08-02T03:25:15.773Z,10.90
2022-08-02T03:27:43.850Z,10.90
2022-08-02T03:30:13.986Z,10.80
2022-08-02T03:32:46.857Z,10.80
2022-08-02T03:35:22.912Z,10.70
2022-08-02T03:37:53.360Z,10.70
2022-08-02T03:40:21.857Z,10.70
2022-08-02T03:42:50.541Z,10.70
2022-08-02T03:45:19.803Z,10.70
2022-08-02T03:47:49.424Z,10.60
2022-08-02T03:50:18.284Z,10.60
2022-08-02T03:52:46.920Z,10.60
2022-08-02T03:55:15.141Z,10.60
2022-08-02T03:57:44.264Z,10.60
2022-08-02T04:00:14.543Z,10.60
2022-08-02T04:02:42.674Z,10.60
2022-08-02T04:05:12.101Z,10.60
2022-08-02T04:08:32.543Z,10.60
2022-08-02T04:10:28.246Z,10.60
2022-08-02T04:12:56.336Z,10.60
2022-08-02T04:15:25.224Z,10.60
2022-08-02T04:17:57.724Z,10.60
2022-08-02T04:20:30.995Z,10.50
2022-08-02T04:23:02.669Z,10.50
2022-08-02T04:25:35.623Z,10.50
2022-08-02T04:28:17.562Z,10.50
2022-08-02T04:30:47.527Z,10.50
2022-08-02T04:33:16.922Z,10.50
2022-08-02T04:35:46.949Z,10.60
2022-08-02T04:38:15.737Z,10.60
2022-08-02T04:40:52.708Z,10.60
2022-08-02T04:43:21.170Z,10.60
2022-08-02T04:45:51.093Z,10.60
2022-08-02T04:48:19.615Z,10.60
2022-08-02T04:50:48.943Z,10.70
2022-08-02T04:53:17.321Z,10.70
2022-08-02T04:55:45.433Z,10.70
2022-08-02T04:58:38.992Z,10.70
2022-08-02T05:01:02.209Z,10.70
2022-08-02T05:03:30.292Z,10.80
2022-08-02T05:06:00.658Z,10.80
2022-08-02T05:08:29.536Z,10.80
2022-08-02T05:10:57.587Z,10.90
2022-08-02T05:13:25.687Z,11.00
2022-08-02T05:15:54.158Z,11.10
2022-08-02T05:18:22.208Z,11.20
2022-08-02T05:20:51.466Z,11.30
2022-08-02T05:23:22.551Z,11.40
2022-08-02T05:25:50.644Z,11.50
2022-08-02T05:28:18.587Z,11.60
2022-08-02T05:30:47.557Z,11.60
2022-08-02T05:33:17.651Z,11.70
2022-08-02T05:35:45.916Z,11.80
2022-08-02T05:38:15.414Z,12.00
2022-08-02T05:40:54.557Z,12.10
2022-08-02T05:43:24.229Z,12.20
2022-08-02T05:45:53.639Z,12.30
2022-08-02T05:48:25.334Z,12.40
2022-08-02T05:51:03.746Z,12.50
2022-08-02T05:53:37.817Z,12.70
2022-08-02T05:56:23.954Z,12.80
2022-08-02T05:58:58.480Z,12.90
2022-08-02T06:01:30.204Z,13.00
2022-08-02T06:04:00.618Z,13.10
2022-08-02T06:06:33.531Z,13.40
2022-08-02T06:09:04.143Z,13.60
2022-08-02T06:11:37.774Z,13.80
2022-08-02T06:14:07.231Z,14.20
2022-08-02T06:16:41.974Z,14.50
2022-08-02T06:19:12.807Z,14.80
2022-08-02T06:22:35.229Z,15.10
2022-08-02T06:24:31.871Z,15.40
2022-08-02T06:27:03.187Z,15.70
2022-08-02T06:29:38.699Z,16.00
2022-08-02T06:32:08.820Z,16.30
2022-08-02T06:34:38.690Z,16.50
2022-08-02T06:37:15.658Z,16.70
2022-08-02T06:39:47.061Z,16.80
2022-08-02T06:42:27.148Z,17.00
2022-08-02T06:44:57.972Z,17.20
2022-08-02T06:47:26.913Z,17.30
2022-08-02T06:49:56.449Z,17.50
2022-08-02T06:52:29.686Z,17.80
2022-08-02T06:54:59.596Z,17.90
2022-08-02T06:57:29.978Z,18.10
2022-08-02T07:00:02.115Z,18.30
2022-08-02T07:02:30.550Z,18.40
2022-08-02T07:04:58.609Z,18.60
2022-08-02T07:07:27.729Z,18.70
2022-08-02T07:09:57.724Z,18.80
2022-08-02T07:12:31.987Z,18.90
2022-08-02T07:15:00.592Z,19.10
2022-08-02T07:17:28.698Z,19.10
2022-08-02T07:19:57.107Z,19.30
2022-08-02T07:22:27.278Z,19.50
2022-08-02T07:24:56.797Z,19.60
2022-08-02T07:27:26.087Z,19.70
2022-08-02T07:29:56.613Z,19.90
2022-08-02T07:32:26.619Z,19.90
2022-08-02T07:34:55.609Z,19.90
2022-08-02T07:37:35.711Z,20.00
2022-08-02T07:40:19.987Z,20.20
2022-08-02T07:42:50.042Z,20.30
2022-08-02T07:45:20.001Z,20.40
2022-08-02T07:47:48.440Z,20.60
2022-08-02T07:50:17.893Z,20.70
2022-08-02T07:52:47.448Z,20.80
2022-08-02T07:55:17.676Z,20.90
2022-08-02T07:57:47.169Z,21.00
2022-08-02T08:00:17.653Z,21.10
2022-08-02T08:02:47.229Z,21.20
2022-08-02T08:05:16.166Z,21.20
2022-08-02T08:07:44.559Z,21.30
2022-08-02T08:10:12.558Z,21.40
2022-08-02T08:12:40.659Z,21.50
2022-08-02T08:15:09.906Z,21.50
2022-08-02T08:17:38.566Z,21.60
2022-08-02T08:20:11.752Z,21.80
2022-08-02T08:22:42.335Z,21.90
2022-08-02T08:25:10.664Z,22.00
2022-08-02T08:27:39.061Z,22.00
2022-08-02T08:30:08.939Z,22.10
2022-08-02T08:32:37.171Z,22.20
2022-08-02T08:35:08.436Z,22.30
2022-08-02T08:37:36.508Z,22.40
2022-08-02T08:40:06.138Z,22.50
2022-08-02T08:42:35.052Z,22.60
2022-08-02T08:45:03.261Z,22.60
2022-08-02T08:47:36.328Z,22.70
2022-08-02T08:50:13.027Z,22.80
2022-08-02T08:52:50.105Z,22.90
2022-08-02T08:55:18.684Z,23.00
2022-08-02T08:57:47.216Z,23.10
2022-08-02T09:00:16.909Z,23.20
2022-08-02T09:02:45.415Z,23.30
2022-08-02T09:05:16.901Z,23.50
2022-08-02T09:07:48.000Z,23.50
2022-08-02T09:10:39.173Z,23.60
2022-08-02T09:13:38.085Z,23.70
2022-08-02T09:16:12.934Z,23.80
2022-08-02T09:18:43.899Z,23.90
2022-08-02T09:21:15.029Z,23.90
2022-08-02T09:23:44.797Z,24.00
2022-08-02T09:26:16.852Z,24.10
2022-08-02T09:28:46.377Z,24.10
2022-08-02T09:31:17.204Z,24.20
2022-08-02T09:33:47.983Z,24.30
2022-08-02T09:36:18.230Z,24.30
2022-08-02T09:38:54.574Z,24.30
2022-08-02T09:41:24.232Z,24.30
2022-08-02T09:44:04.285Z,24.50
2022-08-02T09:46:37.655Z,24.60
2022-08-02T09:49:09.377Z,24.60
2022-08-02T09:51:44.436Z,24.50
2022-08-02T09:54:44.226Z,24.60
2022-08-02T11:29:52.614Z,26.10
2022-08-02T11:32:30.659Z,26.30
2022-08-02T11:35:07.529Z,26.30
2022-08-02T11:37:37.451Z,26.30
2022-08-02T11:40:12.947Z,26.40
2022-08-02T11:42:50.394Z,26.40
2022-08-02T11:45:29.924Z,26.60
2022-08-02T11:47:58.195Z,26.70
2022-08-02T11:50:32.540Z,26.80
2022-08-02T11:53:01.440Z,26.90
2022-08-02T11:55:30.877Z,26.90
2022-08-02T11:58:04.232Z,26.90
2022-08-02T12:00:35.417Z,26.90
2022-08-02T12:03:03.541Z,27.00
2022-08-02T12:06:05.042Z,27.00
2022-08-02T12:08:22.464Z,27.00
2022-08-02T12:10:53.712Z,27.00
2022-08-02T12:13:21.782Z,26.90
2022-08-02T12:15:51.553Z,27.00
2022-08-02T12:18:39.471Z,27.10
2022-08-02T12:21:24.218Z,27.20
2022-08-02T12:24:00.662Z,27.10
2022-08-02T12:26:30.223Z,27.00
2022-08-02T12:29:01.793Z,27.10
2022-08-02T12:31:56.758Z,27.10
2022-08-02T12:34:31.602Z,27.10
2022-08-02T12:37:02.401Z,27.20
2022-08-02T12:39:39.276Z,27.30
2022-08-02T12:42:09.056Z,27.40
2022-08-02T12:44:39.248Z,27.40
2022-08-02T12:47:10.957Z,27.30
2022-08-02T12:49:39.296Z,27.20
2022-08-02T12:52:20.809Z,27.30
2022-08-02T12:54:50.011Z,27.40
2022-08-02T12:57:21.080Z,27.50
2022-08-02T12:59:53.275Z,27.50
2022-08-02T13:02:25.646Z,27.60
2022-08-02T13:04:53.695Z,27.60
2022-08-02T13:07:21.676Z,27.50
2022-08-02T13:09:50.605Z,27.40
2022-08-02T13:12:19.540Z,27.40
2022-08-02T13:14:47.649Z,27.50
2022-08-02T13:17:15.778Z,27.50
2022-08-02T13:19:47.390Z,27.50
2022-08-02T13:22:20.071Z,27.60
2022-08-02T13:24:55.687Z,27.80
2022-08-02T13:27:28.752Z,27.70
2022-08-02T13:29:58.257Z,27.50
2022-08-02T13:32:28.957Z,27.60
2022-08-02T13:34:59.393Z,27.80
2022-08-02T14:35:17.367Z,28.60
2022-08-02T14:37:49.048Z,28.70
2022-08-02T14:40:40.721Z,28.80
2022-08-02T14:43:49.598Z,28.70
2022-08-02T14:46:27.364Z,28.50
2022-08-02T14:48:55.549Z,28.40
2022-08-02T14:51:35.883Z,28.30
2022-08-02T14:54:19.108Z,28.20
2022-08-02T14:56:48.213Z,28.20
2022-08-02T14:59:17.257Z,28.30
2022-08-02T15:01:45.695Z,28.20
2022-08-02T15:04:13.875Z,28.30
2022-08-02T15:07:03.960Z,28.20
2022-08-02T15:09:34.644Z,28.20
2022-08-02T15:12:08.908Z,28.30
2022-08-02T15:14:37.514Z,28.40
2022-08-02T15:17:05.900Z,28.30
2022-08-02T15:19:56.570Z,28.30
2022-08-02T15:22:24.444Z,28.30
2022-08-02T15:24:53.123Z,28.30
2022-08-02T15:27:24.043Z,28.30
2022-08-02T15:30:04.517Z,28.40
2022-08-02T15:32:53.479Z,28.40
2022-08-02T15:35:23.395Z,28.50
2022-08-02T15:37:54.293Z,28.50
2022-08-02T15:40:24.239Z,28.40
2022-08-02T15:42:54.144Z,28.40
2022-08-02T15:45:22.416Z,28.40
2022-08-02T15:47:53.255Z,28.20
2022-08-02T15:50:22.057Z,28.20
2022-08-02T15:52:50.218Z,28.30
2022-08-02T15:55:20.206Z,28.40
2022-08-02T15:57:48.241Z,28.40
2022-08-02T16:00:18.371Z,28.50
2022-08-02T16:02:47.446Z,28.50
2022-08-02T16:05:22.084Z,28.50
2022-08-02T16:07:55.077Z,28.50
2022-08-02T16:10:25.249Z,28.40
2022-08-02T16:13:14.485Z,28.30
2022-08-02T16:15:43.182Z,28.30
2022-08-02T16:18:12.997Z,28.30
2022-08-02T16:20:42.129Z,28.20
2022-08-02T16:23:11.210Z,28.10
2022-08-02T16:25:42.168Z,28.10
2022-08-02T16:28:10.331Z,28.00
2022-08-02T16:30:38.515Z,28.00
2022-08-02T16:33:06.735Z,28.00
2022-08-02T16:35:35.948Z,27.80
2022-08-02T16:38:03.966Z,27.70
2022-08-02T16:40:34.413Z,27.70
2022-08-02T16:43:08.915Z,27.70
2022-08-02T16:45:37.716Z,27.70
2022-08-02T16:48:09.252Z,27.70
2022-08-02T16:50:38.432Z,27.70
2022-08-02T16:53:07.465Z,27.70
2022-08-02T16:55:36.534Z,27.70
2022-08-02T16:58:09.681Z,27.70
2022-08-02T17:00:46.304Z,27.70
2022-08-02T17:03:16.858Z,27.60
2022-08-02T17:05:56.180Z,27.60
2022-08-02T17:08:31.610Z,27.40
2022-08-02T17:11:03.336Z,27.30
2022-08-02T17:13:37.851Z,27.20
2022-08-02T17:16:25.782Z,27.10
2022-08-02T17:18:55.494Z,27.20
2022-08-02T17:21:23.653Z,27.20
2022-08-02T17:24:05.748Z,27.20
2022-08-02T17:26:40.381Z,27.30
2022-08-02T17:29:14.160Z,27.20
2022-08-02T17:32:04.791Z,27.30
2022-08-02T17:34:35.233Z,27.30
2022-08-02T17:37:05.376Z,27.20
2022-08-02T17:39:43.962Z,27.20
2022-08-02T17:42:23.038Z,27.20
2022-08-02T17:45:25.786Z,27.10
2022-08-02T17:51:02.697Z,27.10
2022-08-02T17:53:36.318Z,27.10
2022-08-02T17:56:06.771Z,27.10
2022-08-02T17:58:35.829Z,27.00
2022-08-02T18:01:23.974Z,26.90
2022-08-02T18:03:54.696Z,26.90
2022-08-02T18:09:11.322Z,26.90
2022-08-02T18:11:52.936Z,26.90
2022-08-02T18:14:21.693Z,26.90
2022-08-02T18:16:54.097Z,26.80
2022-08-02T18:19:22.838Z,26.70
2022-08-02T18:21:51.261Z,26.70
2022-08-02T18:24:19.408Z,26.70
2022-08-02T18:26:52.615Z,26.60
2022-08-02T18:29:21.174Z,26.60
2022-08-02T18:31:59.686Z,26.60
2022-08-02T18:34:31.216Z,26.50
2022-08-02T18:36:59.626Z,26.50
2022-08-02T18:39:28.096Z,26.40
2022-08-02T18:42:04.405Z,26.30
2022-08-02T18:44:33.816Z,26.20
2022-08-02T18:47:05.695Z,26.20
2022-08-02T18:49:46.151Z,26.10
2022-08-02T18:52:16.941Z,26.00
2022-08-02T18:54:59.357Z,26.00
2022-08-02T18:58:17.788Z,25.90
2022-08-02T19:00:17.110Z,25.80
2022-08-02T19:02:50.542Z,25.80
2022-08-02T19:05:21.148Z,25.80
2022-08-02T19:07:50.536Z,25.70
2022-08-02T19:10:20.258Z,25.70
2022-08-02T19:12:51.751Z,25.60
2022-08-02T19:15:19.966Z,25.50
2022-08-02T19:17:53.810Z,25.50
2022-08-02T19:20:24.177Z,25.50
2022-08-02T19:22:53.737Z,25.50
2022-08-02T19:25:27.835Z,25.50
2022-08-02T19:27:57.906Z,25.40
2022-08-02T19:30:27.652Z,25.30
2022-08-02T19:32:59.090Z,25.20
2022-08-02T19:35:30.421Z,25.10
2022-08-02T19:38:08.583Z,25.00
2022-08-02T19:40:41.772Z,24.80
2022-08-02T19:44:27.475Z,24.70
2022-08-02T19:45:59.524Z,24.60
2022-08-02T19:48:29.191Z,24.60
2022-08-02T19:51:00.760Z,24.60
2022-08-02T19:53:47.966Z,24.50
2022-08-02T19:56:24.719Z,24.30
2022-08-02T19:58:54.865Z,24.10
2022-08-02T20:01:37.298Z,24.00
2022-08-02T20:04:13.095Z,24.00
2022-08-02T20:06:45.089Z,23.90
2022-08-02T20:09:16.644Z,23.90
2022-08-02T20:11:46.112Z,23.80
2022-08-02T20:14:24.860Z,23.80
2022-08-02T20:16:55.499Z,23.70
2022-08-02T20:19:29.197Z,23.60
2022-08-02T20:22:00.006Z,23.60
2022-08-02T20:24:46.934Z,23.60
2022-08-02T20:27:21.129Z,23.50
2022-08-02T20:29:53.247Z,23.40
2022-08-02T20:32:24.428Z,23.30
2022-08-02T20:34:54.206Z,23.30
2022-08-02T20:40:17.072Z,23.20
2022-08-02T20:42:48.440Z,23.30
2022-08-02T20:45:17.272Z,23.20
2022-08-02T20:47:50.748Z,23.10
2022-08-02T20:50:38.108Z,23.10
2022-08-02T20:53:06.937Z,23.00
2022-08-02T20:55:36.650Z,23.00
2022-08-02T20:58:06.108Z,22.90
2022-08-02T21:00:40.683Z,23.00
2022-08-02T21:03:10.188Z,22.90
2022-08-02T21:05:43.556Z,22.90
2022-08-02T21:08:14.735Z,22.90
2022-08-02T21:10:51.925Z,22.90
2022-08-02T21:13:24.072Z,22.90
2022-08-02T21:15:55.141Z,22.80
2022-08-02T21:18:34.654Z,22.80
2022-08-02T21:21:10.839Z,22.80
2022-08-02T21:23:49.055Z,22.70
2022-08-02T21:26:28.001Z,22.70
2022-08-02T21:29:00.702Z,22.70
2022-08-02T21:31:32.103Z,22.60
2022-08-02T21:34:02.830Z,22.60
2022-08-02T21:36:33.914Z,22.60
2022-08-02T21:39:05.197Z,22.50
2022-08-02T21:41:39.933Z,22.50
2022-08-02T21:44:16.339Z,22.40
2022-08-02T21:46:49.413Z,22.30
2022-08-02T21:49:18.092Z,22.30
2022-08-02T21:51:49.751Z,22.20
2022-08-02T21:54:21.032Z,22.10
2022-08-02T21:56:51.841Z,22.10
2022-08-02T21:59:26.045Z,22.10
2022-08-02T22:01:56.970Z,22.10
2022-08-02T22:04:26.296Z,22.00
2022-08-02T22:06:56.484Z,21.90
2022-08-02T22:09:43.917Z,21.90
2022-08-02T22:12:17.991Z,21.80
2022-08-02T22:14:49.714Z,21.80
2022-08-02T22:17:52.141Z,21.70
2022-08-02T22:20:13.667Z,21.70
2022-08-02T22:22:43.296Z,21.70
2022-08-02T22:25:31.038Z,21.60
2022-08-02T22:28:11.945Z,21.60
2022-08-02T22:30:52.480Z,21.50
2022-08-02T22:33:41.976Z,21.40
2022-08-02T22:36:15.333Z,21.40
2022-08-02T22:38:45.176Z,21.30
2022-08-02T22:41:13.838Z,21.30
2022-08-02T22:43:42.370Z,21.30
2022-08-02T22:46:15.211Z,21.30
2022-08-02T22:48:43.937Z,21.20
2022-08-02T22:51:12.613Z,21.20
2022-08-02T22:53:41.619Z,21.20
2022-08-02T22:56:12.246Z,21.10
2022-08-02T22:58:49.366Z,27.20
2022-08-02T22:58:55.828Z,23.30
2022-08-02T22:58:57.783Z,26.90
2022-08-02T23:01:28.796Z,21.10
2022-08-02T23:03:56.817Z,21.00
2022-08-02T23:06:24.789Z,21.00
2022-08-02T23:08:52.864Z,21.00
2022-08-02T23:11:23.133Z,21.00
2022-08-02T23:13:51.164Z,21.00
2022-08-02T23:16:39.929Z,21.00
2022-08-02T23:19:25.492Z,20.90
2022-08-02T23:22:01.661Z,21.00
2022-08-02T23:24:32.939Z,20.90
2022-08-02T23:27:02.698Z,20.90
2022-08-02T23:29:30.769Z,20.90
2022-08-02T23:31:58.944Z,20.90
2022-08-02T23:34:27.233Z,20.90
2022-08-02T23:36:55.268Z,20.80
2022-08-02T23:39:23.337Z,20.80
2022-08-02T23:41:54.661Z,20.80
2022-08-02T23:44:24.814Z,20.80
2022-08-02T23:46:53.961Z,20.80
2022-08-02T23:49:22.817Z,20.80
2022-08-02T23:51:52.027Z,20.70
2022-08-02T23:54:20.894Z,20.70
2022-08-02T23:56:48.911Z,20.70
2022-08-02T23:59:17.230Z,20.60
